Date,TemperatureHighF,TemperatureAvgF,TemperatureLowF,DewpointHighF,DewpointAvgF,DewpointLowF,HumidityHigh,HumidityAvg,HumidityLow,PressureMaxIn,PressureMinIn,WindSpeedMaxMPH,WindSpeedAvgMPH,GustSpeedMaxMPH,PrecipitationSumIn
2013-1-1,55.2,40.7,29.3,29.8,18.5,9.6,79,46,18,28.02,27.86,6,0,9,0.00
2013-1-2,64.5,45.4,31.4,25.8,19.2,8.9,75,41,15,27.92,27.72,6,0,9,0.00
2013-1-3,62.9,46.9,34.5,22.0,16.7,10.7,55,33,16,27.93,27.78,6,1,12,0.00
2013-1-4,59.5,47.6,39.2,18.5,15.1,7.9,41,28,17,28.03,27.91,6,1,17,0.00
2013-1-5,65.8,46.5,31.8,27.2,15.7,3.7,68,33,15,28.10,27.96,6,0,8,0.00
2013-1-6,67.6,46.4,35.9,18.2,10.7,4.5,30,24,15,27.97,27.72,4,0,6,0.00
2013-1-7,58.4,45.1,34.3,21.8,15.5,11.0,51,32,17,27.76,27.58,7,1,11,0.00
2013-1-8,62.7,45.9,33.0,23.1,16.4,8.3,61,34,16,27.91,27.70,5,1,8,0.00
2013-1-9,73.2,52.0,35.7,21.1,14.8,3.6,42,25,14,27.99,27.80,7,1,13,0.00
2013-1-10,69.6,55.0,41.5,20.2,12.0,2.5,27,18,15,27.84,27.58,10,2,17,0.00
2013-1-11,53.4,40.6,32.1,30.0,14.2,0.0,77,38,17,27.87,27.65,11,3,18,0.00
2013-1-12,47.6,34.5,24.4,10.6,2.9,-5.0,44,27,17,27.90,27.77,7,1,11,0.00
2013-1-13,48.7,34.0,22.6,6.7,1.4,-5.0,42,26,16,27.91,27.74,8,1,11,0.00
2013-1-14,44.7,31.9,22.6,6.4,-0.3,-9.0,40,25,17,28.00,27.84,6,1,11,0.00
2013-1-15,47.4,32.1,18.3,4.8,-2.4,-9.0,35,22,17,28.13,28.00,7,0,9,0.00
2013-1-16,65.6,42.4,25.3,16.9,2.1,-9.0,21,18,15,28.14,27.93,6,0,11,0.00
2013-1-17,71.2,55.0,35.2,19.9,10.4,-2.0,20,17,14,28.00,27.86,7,2,11,0.00
2013-1-18,77.0,57.6,39.7,22.3,11.6,0.0,21,16,13,28.00,27.82,7,0,8,0.00
2013-1-19,79.7,55.0,36.8,23.6,10.7,0.6,22,17,12,28.02,27.85,7,0,8,0.00
2013-1-20,80.7,58.1,42.9,23.6,12.9,4.6,20,17,12,27.96,27.76,5,0,10,0.00
2013-1-21,82.2,60.3,44.7,24.5,16.1,7.3,29,19,12,27.89,27.76,6,0,8,0.00
2013-1-22,83.4,61.3,44.6,24.5,17.5,9.6,34,19,11,27.96,27.82,5,0,8,0.00
2013-1-23,81.8,62.1,46.4,24.2,15.6,8.2,24,17,12,28.00,27.85,4,0,8,0.00
2013-1-24,65.4,59.6,56.3,43.1,27.9,12.0,55,33,15,28.03,27.93,4,0,6,0.00
2013-1-25,79.7,64.5,51.8,40.8,33.8,23.7,65,36,15,27.97,27.76,4,0,5,0.00
2013-1-26,68.7,61.4,54.6,58.2,44.0,30.7,92,57,25,27.80,27.68,10,2,17,0.52
2013-1-27,67.2,57.9,50.1,60.0,42.1,30.6,98,62,27,27.83,27.72,5,0,11,0.00
2013-1-28,57.2,51.2,44.2,42.9,30.1,16.2,77,45,29,27.78,27.70,11,4,20,0.08
2013-1-29,52.1,43.6,37.0,26.8,16.2,6.0,58,36,18,27.97,27.78,10,3,15,0.00
2013-1-30,60.6,44.9,33.0,26.7,15.1,7.0,59,33,17,28.11,27.95,7,1,10,0.00
2013-1-31,64.4,47.0,34.5,26.9,18.0,13.4,54,34,16,28.04,27.85,8,1,10,0.00
2013-2-1,73.7,53.2,36.6,27.5,19.3,12.5,58,30,13,27.99,27.86,7,1,12,0.00
2013-2-2,78.2,56.8,38.8,24.7,20.6,14.6,48,27,13,28.03,27.85,5,0,8,0.00
2013-2-3,68.5,62.0,51.6,23.3,19.2,15.9,31,20,15,27.92,27.74,5,0,8,0.00
2013-2-4,71.6,58.6,47.3,30.1,25.1,18.5,48,30,15,27.83,27.71,5,0,11,0.00
2013-2-5,75.7,58.1,43.3,39.0,28.1,18.4,73,37,13,27.84,27.68,8,1,11,0.00
2013-2-6,70.8,57.7,45.6,35.7,26.7,17.4,65,34,14,27.83,27.68,8,1,12,0.00
2013-2-7,71.9,56.0,41.7,37.1,23.3,13.5,64,32,14,27.91,27.74,6,0,10,0.00
2013-2-8,68.3,56.8,45.6,21.2,17.1,9.2,37,22,15,27.77,27.57,8,2,15,0.00
2013-2-9,53.2,45.4,36.3,32.6,18.1,8.3,83,38,18,27.82,27.59,9,2,15,0.04
2013-2-10,58.8,43.9,30.7,27.4,15.2,6.1,65,35,17,27.83,27.70,8,1,11,0.00
2013-2-11,52.1,39.2,33.2,34.5,22.2,11.7,89,55,23,27.95,27.76,9,1,13,0.08
2013-2-12,53.4,41.2,31.1,39.1,25.1,14.0,96,59,26,28.05,27.92,7,1,12,0.00
2013-2-13,62.6,45.2,30.5,26.2,17.6,8.9,72,38,16,27.98,27.85,7,1,9,0.00
2013-2-14,67.1,49.3,33.8,24.6,16.9,10.7,57,31,15,27.95,27.78,7,1,10,0.00
2013-2-15,75.5,56.2,40.8,21.4,16.9,5.6,42,23,13,28.01,27.89,8,1,13,0.00
2013-2-16,74.8,61.6,46.5,21.1,13.6,4.1,18,15,13,28.05,27.77,9,2,14,0.00
2013-2-17,74.1,58.4,41.7,21.1,12.0,1.3,18,16,13,27.81,27.62,9,2,15,0.00
2013-2-18,71.2,54.6,40.8,19.9,10.5,2.5,23,17,14,27.87,27.68,7,0,10,0.00
2013-2-19,70.5,58.1,44.9,19.9,12.3,2.8,21,16,14,27.74,27.50,12,2,20,0.00
2013-2-20,52.5,41.3,33.2,32.7,25.7,12.6,96,58,21,27.77,27.50,11,3,16,0.16
2013-2-21,55.4,43.1,33.2,35.9,26.4,17.5,98,59,26,27.84,27.70,6,1,13,0.40
2013-2-22,56.3,45.6,36.3,38.0,23.8,12.2,89,47,22,27.94,27.78,10,2,13,0.00
2013-2-23,66.7,49.3,32.7,26.6,17.7,10.8,68,33,15,27.94,27.60,8,1,10,0.00
2013-2-24,51.0,44.6,37.4,22.6,11.5,-1.0,50,28,16,27.88,27.61,13,3,27,0.00
2013-2-25,60.8,45.1,29.6,15.4,7.9,0.0,37,22,16,28.00,27.81,8,1,11,0.00
2013-2-26,64.4,47.7,31.8,19.7,12.0,2.6,48,26,15,27.87,27.72,9,1,15,0.00
2013-2-27,65.1,49.2,33.9,17.0,9.6,1.6,34,21,15,27.99,27.84,8,1,11,0.00
2013-2-28,69.4,50.5,32.9,19.7,8.6,-1.0,31,18,15,28.08,27.96,7,1,11,0.00
2013-3-1,75.7,55.5,37.9,21.4,11.3,0.1,24,17,13,28.10,27.95,6,1,9,0.00
2013-3-2,86.1,63.4,42.8,25.5,17.1,7.9,29,18,11,28.09,27.85,6,0,8,0.00
2013-3-3,80.0,64.6,46.9,23.6,16.9,9.0,24,16,12,27.92,27.70,8,1,15,0.00
2013-3-4,72.3,64.4,52.3,20.4,16.5,10.1,18,16,14,27.86,27.66,10,2,17,0.00
2013-3-5,80.4,62.5,46.2,23.6,18.4,9.9,34,19,12,27.90,27.74,11,1,21,0.00
2013-3-6,82.9,66.7,54.8,24.5,18.1,12.5,22,16,11,27.82,27.64,8,0,11,0.00
2013-3-7,78.9,65.2,50.0,23.6,16.8,9.6,24,16,12,27.77,27.64,11,2,17,0.00
2013-3-8,66.7,58.1,45.8,33.4,21.1,14.3,40,25,16,27.78,27.57,17,5,28,0.00
2013-3-9,55.5,48.1,42.8,32.2,24.8,19.2,61,41,29,27.87,27.75,8,2,11,0.00
2013-3-10,67.8,53.1,40.6,36.3,23.1,11.9,68,35,15,27.93,27.81,10,1,13,0.00
2013-3-11,73.4,56.3,39.3,26.0,19.7,13.6,49,27,13,27.97,27.77,8,1,15,0.00
2013-3-12,82.9,61.9,42.4,25.7,20.4,14.9,41,23,11,27.89,27.76,7,1,10,0.00
2013-3-13,90.3,68.7,47.1,26.6,22.4,14.6,38,20,10,27.93,27.78,7,0,10,0.00
2013-3-14,93.3,71.8,51.9,30.9,18.9,9.8,18,14,9,27.92,27.74,7,1,9,0.00
2013-3-15,94.2,73.8,53.0,31.6,19.9,10.7,18,14,9,27.86,27.65,10,1,20,0.00
2013-3-16,89.4,72.8,54.1,26.6,19.8,7.5,18,14,10,27.75,27.51,12,1,17,0.00
2013-3-17,82.7,68.9,54.3,24.5,18.2,7.6,17,15,11,27.73,27.57,12,2,25,0.00
2013-3-18,82.5,67.8,54.5,24.4,17.9,11.3,18,15,11,27.79,27.67,8,1,15,0.00
2013-3-19,80.2,66.1,54.5,23.6,17.1,11.3,18,15,12,27.85,27.73,8,1,16,0.00
2013-3-20,82.5,67.8,52.8,24.4,17.7,10.5,18,15,11,27.85,27.65,7,1,11,0.00
2013-3-21,77.0,66.7,54.6,22.3,17.5,11.3,18,15,13,27.67,27.52,6,0,11,0.00
2013-3-22,80.0,68.7,56.1,23.6,18.4,11.9,17,15,12,27.63,27.46,11,2,16,0.00
2013-3-23,74.6,62.3,50.7,21.1,15.1,7.0,21,16,13,27.77,27.63,9,1,17,0.00
2013-3-24,75.5,61.0,44.9,21.2,13.2,2.8,17,15,13,27.81,27.64,10,1,13,0.00
2013-3-25,82.0,64.1,46.7,24.4,14.7,4.1,17,15,12,27.80,27.67,8,1,12,0.00
2013-3-26,86.3,70.0,51.0,25.6,17.6,6.4,17,14,11,27.79,27.60,7,1,13,0.00
2013-3-27,85.2,71.4,53.7,24.8,19.0,7.2,17,14,11,27.78,27.66,9,2,15,0.00
2013-3-28,84.5,70.7,54.1,24.5,18.8,7.5,17,14,11,27.84,27.72,8,1,12,0.00
2013-3-29,86.5,71.4,56.6,25.7,19.3,12.3,17,14,11,27.88,27.75,8,1,15,0.00
2013-3-30,82.9,70.3,57.9,24.5,19.1,13.3,17,14,11,27.85,27.70,6,0,11,0.00
2013-3-31,85.8,69.9,52.5,25.2,18.6,10.2,18,14,11,27.85,27.67,10,1,11,0.00
2013-4-1,84.2,69.2,53.7,24.5,18.4,11.2,18,15,11,27.82,27.64,8,1,12,0.00
2013-4-2,77.0,64.4,49.8,22.3,15.5,5.4,17,15,13,27.77,27.64,11,2,18,0.00
2013-4-3,82.9,67.0,49.8,23.9,16.5,5.4,18,14,11,27.83,27.70,11,2,15,0.00
2013-4-4,89.4,71.5,53.4,26.6,19.0,7.0,18,14,10,27.87,27.69,8,1,11,0.00
2013-4-5,87.9,73.8,57.5,26.4,20.4,13.0,17,14,10,27.79,27.63,9,1,15,0.00
2013-4-6,86.5,72.4,56.6,25.5,19.8,12.3,17,14,11,27.79,27.60,8,1,12,0.00
2013-4-7,86.9,72.3,56.8,26.0,19.8,12.5,17,14,11,27.70,27.53,8,1,13,0.00
2013-4-8,80.9,69.3,46.5,37.2,19.6,13.0,68,16,12,27.57,27.22,17,7,28,0.04
2013-4-9,65.1,58.8,46.4,40.9,18.3,10.4,79,24,15,27.68,27.44,12,3,20,0.08
2013-4-10,68.3,57.4,43.8,21.8,16.6,10.8,39,21,15,27.79,27.67,10,2,15,0.00
2013-4-11,78.0,62.9,44.7,23.9,18.6,11.8,36,19,13,27.80,27.55,8,1,14,0.00
2013-4-12,81.3,66.3,52.8,23.8,17.2,10.5,18,15,12,27.63,27.52,8,0,11,0.00
2013-4-13,85.6,70.9,51.0,25.0,19.0,9.6,19,14,11,27.68,27.51,8,1,15,0.00
2013-4-14,83.8,71.5,57.2,24.5,19.5,12.7,17,14,11,27.64,27.45,11,3,17,0.00
2013-4-15,85.4,73.6,60.9,24.9,20.3,14.4,16,13,11,27.62,27.48,15,4,21,0.00
2013-4-16,83.4,71.5,58.2,24.5,19.5,13.6,17,14,11,27.64,27.48,14,4,26,0.00
2013-4-17,67.2,61.3,56.4,24.4,16.9,12.2,27,18,15,27.79,27.60,12,3,20,0.00
2013-4-18,70.7,58.6,42.6,19.9,12.3,2.1,18,16,14,27.92,27.77,11,2,15,0.00
2013-4-19,81.1,63.2,43.5,23.7,14.3,2.5,18,15,12,27.93,27.70,8,1,12,0.00
2013-4-20,84.7,67.1,46.7,24.5,16.2,4.1,17,14,11,27.78,27.66,11,1,13,0.00
2013-4-21,89.0,71.6,51.9,26.6,18.6,7.0,17,14,10,27.85,27.69,9,1,14,0.00
2013-4-22,92.6,75.8,57.9,27.0,20.9,13.3,17,13,9,27.79,27.56,9,1,12,0.00
2013-4-23,88.3,75.2,59.1,26.6,21.0,14.4,17,13,10,27.69,27.57,10,1,15,0.00
2013-4-24,90.6,76.4,59.5,26.6,21.2,14.4,17,13,10,27.73,27.60,8,2,12,0.00
2013-4-25,82.2,73.5,60.9,24.5,20.6,14.4,16,14,12,27.82,27.67,13,3,22,0.00
2013-4-26,87.9,70.0,50.3,26.6,18.1,5.8,19,14,10,27.91,27.75,10,1,15,0.00
2013-4-27,90.6,74.9,55.7,26.6,20.6,11.6,17,13,10,27.88,27.66,10,1,16,0.00
2013-4-28,95.5,77.8,57.7,32.6,21.6,13.2,17,13,9,27.73,27.53,9,1,12,0.00
2013-4-29,96.4,79.9,59.7,33.3,23.2,14.3,17,13,9,27.67,27.47,9,1,14,0.00
2013-4-30,96.9,80.9,62.6,33.7,23.4,15.7,16,12,9,27.63,27.47,12,2,15,0.00
2013-5-1,91.4,77.5,62.7,27.0,21.7,15.7,16,13,9,27.77,27.62,9,1,12,0.00
2013-5-2,93.5,77.4,60.6,27.0,21.6,14.3,17,13,9,27.89,27.75,8,2,12,0.00
2013-5-3,87.4,74.2,63.1,26.4,20.7,15.7,16,13,11,27.86,27.57,10,3,17,0.00
2013-5-4,91.4,77.4,59.1,27.0,21.6,14.3,17,13,9,27.64,27.47,12,3,14,0.00
2013-5-5,88.1,77.1,64.7,26.6,21.8,16.0,15,13,10,27.75,27.57,13,3,20,0.00
2013-5-6,83.3,71.6,59.7,43.0,27.2,16.6,51,22,11,27.78,27.66,10,2,15,0.00
2013-5-7,82.2,70.6,59.3,27.1,21.7,14.3,24,16,12,27.79,27.64,12,3,17,0.00
2013-5-8,81.5,68.3,55.2,28.6,22.6,18.3,35,19,12,27.82,27.67,7,1,11,0.00
2013-5-9,83.4,71.1,56.4,30.2,22.9,17.4,32,17,11,27.79,27.66,10,1,12,0.00
2013-5-10,87.6,71.8,57.3,26.6,20.9,14.4,25,15,11,27.84,27.69,8,1,12,0.00
2013-5-11,86.7,75.5,60.8,25.9,21.0,14.3,16,13,11,27.89,27.78,8,2,13,0.00
2013-5-12,92.3,79.9,69.9,32.3,22.6,18.6,14,12,9,27.92,27.72,7,2,17,0.00
2013-5-13,95.0,81.9,67.6,32.8,23.9,18.3,15,12,9,27.87,27.68,6,1,15,0.00
2013-5-14,95.9,83.9,69.6,32.9,24.8,18.4,15,12,9,27.80,27.62,8,1,14,0.00
2013-5-15,96.9,82.8,68.1,33.7,24.6,18.4,15,12,9,27.81,27.62,11,2,17,0.00
2013-5-16,96.6,82.9,66.2,33.4,24.6,17.1,15,12,9,27.75,27.56,9,2,17,0.00
2013-5-17,93.9,80.5,64.7,31.4,22.7,16.0,15,12,9,27.71,27.59,11,2,15,0.00
2013-5-18,90.8,78.8,66.9,26.7,22.3,17.7,15,12,10,27.75,27.60,10,2,16,0.00
2013-5-19,90.1,77.7,62.6,27.2,22.7,15.7,24,13,10,27.74,27.57,8,1,15,0.00
2013-5-20,90.8,78.7,62.4,26.7,22.2,15.6,16,12,10,27.72,27.59,9,2,17,0.00
2013-5-21,95.9,78.6,58.8,32.9,22.1,14.1,17,13,9,27.73,27.56,8,1,13,0.00
2013-5-22,98.2,82.5,63.5,34.6,24.6,15.7,16,12,9,27.65,27.46,10,2,14,0.00
2013-5-23,96.6,83.9,67.8,33.4,25.0,18.4,15,12,9,27.67,27.53,10,2,17,0.00
2013-5-24,97.3,83.3,66.0,34.0,24.5,17.0,15,12,9,27.74,27.59,9,2,15,0.00
2013-5-25,96.0,82.5,63.6,33.0,24.1,15.7,16,12,9,27.75,27.62,11,2,15,0.00
2013-5-26,96.4,80.7,62.4,33.3,23.1,15.6,16,12,9,27.77,27.62,11,2,18,0.00
2013-5-27,96.8,79.8,61.3,33.5,23.1,14.7,16,12,9,27.72,27.50,8,1,14,0.00
2013-5-28,93.7,79.7,60.6,31.2,22.4,14.3,17,12,9,27.60,27.41,12,2,15,0.00
2013-5-29,93.0,80.4,65.3,32.8,22.7,16.4,15,12,9,27.59,27.44,9,1,13,0.00
2013-5-30,96.2,83.8,69.0,34.9,29.0,20.8,26,14,9,27.65,27.53,8,1,15,0.00
2013-5-31,96.9,84.6,69.8,42.9,32.5,21.8,37,17,10,27.70,27.56,9,2,13,0.00
2013-6-1,105.6,88.0,67.6,35.1,27.5,18.3,15,12,9,27.66,27.48,8,1,12,0.00
2013-6-2,104.9,89.8,71.4,35.1,27.9,19.5,14,11,9,27.63,27.46,10,2,17,0.00
2013-6-3,101.6,88.4,71.4,34.8,27.3,19.5,14,11,9,27.67,27.52,11,2,15,0.00
2013-6-4,100.0,87.7,71.7,34.8,27.2,19.5,14,11,9,27.69,27.55,11,2,15,0.00
2013-6-5,100.5,85.8,68.9,34.8,26.0,18.4,15,12,9,27.71,27.55,9,1,13,0.00
2013-6-6,103.1,86.4,66.0,35.1,26.6,17.0,15,12,9,27.66,27.49,10,1,15,0.00
2013-6-7,107.2,89.9,70.3,36.3,28.0,18.8,14,11,9,27.65,27.43,8,1,15,0.00
2013-6-8,103.6,90.3,72.5,35.1,28.0,19.5,14,11,9,27.66,27.53,9,2,19,0.00
2013-6-9,101.8,88.8,72.5,35.0,27.7,19.5,14,11,9,27.73,27.58,11,2,16,0.00
2013-6-10,106.8,90.3,69.9,36.1,28.2,18.6,14,11,9,27.73,27.55,9,1,12,0.00
2013-6-11,105.6,91.2,72.8,35.1,28.5,19.5,14,11,9,27.72,27.58,8,2,17,0.00
2013-6-12,105.8,92.0,73.4,35.3,29.2,19.5,13,11,9,27.76,27.58,8,2,15,0.00
2013-6-13,102.0,90.1,75.5,35.1,28.6,21.2,13,11,9,27.76,27.55,9,2,21,0.00
2013-6-14,102.9,90.3,76.4,35.1,29.5,22.0,15,12,9,27.70,27.52,8,2,15,0.00
2013-6-15,99.6,88.9,78.4,37.6,29.6,22.0,18,12,10,27.72,27.58,9,1,13,0.00
2013-6-16,102.2,89.4,72.8,37.6,32.2,24.4,26,14,9,27.75,27.58,11,1,15,0.00
2013-6-17,103.4,89.4,70.7,35.1,27.9,19.1,14,11,9,27.75,27.58,8,1,11,0.00
2013-6-18,105.2,89.1,68.0,35.1,27.4,18.4,15,11,9,27.69,27.52,11,1,15,0.00
2013-6-19,105.0,89.3,67.4,35.1,27.8,18.2,15,11,9,27.63,27.49,10,2,16,0.00
2013-6-20,104.1,89.0,71.7,35.1,27.4,19.5,14,11,9,27.67,27.52,9,2,17,0.00
2013-6-21,102.9,89.3,71.0,35.1,27.9,19.4,14,11,9,27.70,27.55,12,2,17,0.00
2013-6-22,102.0,88.8,72.8,35.1,27.7,19.5,14,11,9,27.71,27.52,11,2,15,0.00
2013-6-23,100.5,87.7,68.7,34.8,27.1,18.4,15,11,9,27.66,27.49,12,3,17,0.00
2013-6-24,100.2,87.5,73.0,34.8,26.9,19.5,14,11,9,27.67,27.55,11,3,17,0.00
2013-6-25,103.4,88.2,71.4,35.1,27.1,19.5,14,11,9,27.76,27.61,8,1,12,0.00
2013-6-26,101.1,87.9,70.1,34.8,27.4,18.7,14,11,9,27.83,27.67,10,2,16,0.00
2013-6-27,104.9,89.2,72.1,35.0,27.8,19.5,14,11,9,27.86,27.67,12,2,21,0.00
2013-6-28,110.3,93.0,73.7,36.5,29.2,19.8,13,11,8,27.77,27.58,10,1,12,0.00
2013-6-29,110.6,96.9,83.3,36.5,30.9,23.3,11,10,8,27.69,27.51,12,2,17,0.00
2013-6-30,108.5,94.4,81.5,36.6,30.9,24.4,20,11,8,27.79,27.48,9,2,17,0.00
2013-7-1,107.7,89.6,78.0,46.0,34.5,27.9,26,15,8,27.73,27.57,10,1,13,0.04
2013-7-2,100.9,88.1,70.8,52.3,36.3,27.8,52,18,10,27.86,27.61,13,2,20,0.08
2013-7-3,105.2,91.5,76.4,37.0,33.0,25.5,21,13,9,27.73,27.49,11,2,15,0.00
2013-7-4,104.1,92.9,80.6,38.4,32.6,24.1,20,12,9,27.67,27.49,11,2,22,0.00
2013-7-5,99.3,84.8,75.2,57.1,40.7,29.4,52,24,10,27.71,27.55,14,1,20,0.00
2013-7-6,103.4,85.9,72.1,51.7,40.8,30.2,45,24,9,27.65,27.46,8,1,11,0.00
2013-7-7,108.6,89.6,76.6,45.9,38.0,30.2,32,18,8,27.63,27.48,9,2,17,0.00
2013-7-8,105.9,92.4,81.3,39.4,32.8,28.1,20,12,9,27.72,27.61,8,1,15,0.00
2013-7-9,98.9,88.3,76.8,58.7,43.3,30.8,50,24,11,27.85,27.65,9,2,21,0.00
2013-7-10,99.8,82.9,71.7,62.0,51.3,37.8,69,38,13,27.83,27.65,9,2,13,0.00
2013-7-11,93.2,81.9,71.6,68.0,52.7,40.8,80,42,17,27.80,27.66,8,1,15,0.08
2013-7-12,93.3,85.6,78.2,54.0,43.3,35.8,43,24,14,27.72,27.62,8,2,15,0.00
2013-7-13,98.9,87.3,75.2,55.0,42.4,30.8,49,24,11,27.76,27.61,11,1,13,0.00
2013-7-14,101.6,90.6,79.8,44.7,37.0,30.3,27,16,10,27.73,27.55,9,2,15,0.00
2013-7-15,103.1,88.5,77.3,51.1,40.1,30.9,37,20,9,27.67,27.52,9,2,15,0.00
2013-7-16,89.6,80.7,75.2,54.6,47.9,39.9,46,33,18,27.82,27.67,8,1,11,0.00
2013-7-17,100.0,87.2,75.5,55.5,38.0,28.4,49,21,10,27.82,27.67,7,2,13,0.00
2013-7-18,98.0,86.4,79.7,38.6,31.9,26.9,21,14,11,27.79,27.61,10,3,14,0.00
2013-7-19,98.7,84.7,78.4,55.5,38.9,30.8,43,20,10,27.75,27.60,10,2,15,0.00
2013-7-20,95.5,79.1,73.9,60.8,54.4,40.5,63,46,16,27.73,27.56,14,1,17,0.00
2013-7-21,92.1,82.0,73.2,63.0,50.0,39.7,70,37,17,27.76,27.63,8,2,13,0.00
2013-7-22,94.4,83.2,72.8,61.5,47.6,36.1,67,34,14,27.80,27.68,11,2,14,0.00
2013-7-23,95.7,85.6,73.7,50.1,40.3,30.3,43,23,11,27.80,27.62,11,2,18,0.00
2013-7-24,93.7,83.4,75.7,63.9,46.1,38.1,65,30,16,27.76,27.65,9,1,13,0.08
2013-7-25,95.9,81.0,75.5,65.4,55.7,41.4,70,44,16,27.83,27.73,6,0,10,0.08
2013-7-26,99.5,80.3,73.9,65.5,56.5,37.8,72,49,13,27.91,27.79,13,1,17,0.00
2013-7-27,95.9,82.7,72.8,63.5,50.7,36.6,68,37,14,27.86,27.66,8,1,13,0.04
2013-7-28,102.5,88.3,73.9,54.8,39.5,22.7,48,22,9,27.71,27.55,9,2,15,0.00
2013-7-29,100.7,87.9,73.7,34.8,28.2,20.1,16,12,10,27.82,27.69,8,1,11,0.00
2013-7-30,104.7,89.8,74.1,37.1,31.9,23.9,23,13,9,27.91,27.73,11,2,15,0.00
2013-7-31,103.8,90.1,80.6,35.1,31.6,27.2,19,13,9,27.85,27.71,10,1,19,0.00
2013-8-1,93.3,86.3,80.6,38.8,33.1,28.0,22,15,11,27.79,27.69,9,1,15,0.00
2013-8-2,94.1,84.1,76.4,47.9,40.4,35.4,31,22,14,27.78,27.70,8,1,10,0.00
2013-8-3,100.5,87.0,71.9,49.6,37.5,28.4,45,20,10,27.82,27.64,9,2,13,0.00
2013-8-4,95.3,86.7,78.8,39.7,33.9,28.0,21,16,11,27.81,27.68,7,1,8,0.00
2013-8-5,94.8,82.3,70.1,59.6,39.7,30.2,69,26,11,27.86,27.65,8,2,15,0.04
2013-8-6,87.6,75.8,69.6,64.5,53.3,39.0,82,50,20,27.83,27.76,11,2,15,0.04
2013-8-7,71.9,71.4,70.7,56.6,55.1,53.7,60,56,54,27.80,27.80,0,0,0,0.00
2013-8-9,102.3,88.4,67.4,35.0,28.2,18.3,17,12,9,27.76,27.61,9,2,15,0.00
2013-8-10,102.3,88.6,73.9,35.1,27.8,19.9,13,11,9,27.83,27.65,9,2,13,0.00
2013-8-11,100.0,86.8,72.6,38.8,30.3,20.9,26,14,10,27.80,27.62,14,1,18,0.00
2013-8-12,104.0,89.5,72.1,41.1,34.1,24.6,32,16,9,27.74,27.61,9,1,15,0.00
2013-8-13,103.2,89.5,71.4,35.1,27.8,19.7,14,11,9,27.80,27.61,9,1,12,0.00
2013-8-14,105.9,89.0,77.7,39.1,30.8,22.0,21,13,9,27.76,27.61,10,2,15,0.00
2013-8-15,104.9,88.8,76.2,40.1,34.1,28.1,27,15,9,27.79,27.61,9,1,20,0.00
2013-8-16,107.0,90.9,76.2,39.5,32.7,26.9,24,13,9,27.79,27.60,9,2,15,0.00
2013-8-17,110.6,92.0,76.2,44.7,35.4,24.4,31,15,8,27.79,27.57,10,1,15,0.00
2013-8-18,106.7,90.3,80.2,35.9,30.7,26.1,15,12,9,27.79,27.67,10,1,16,0.00
2013-8-19,83.8,82.6,81.5,29.5,28.6,27.6,14,14,14,27.79,27.75,0,0,0,0.00
2013-8-20,102.2,85.3,78.9,56.5,42.6,28.7,46,25,9,27.79,27.64,13,2,21,0.16
2013-8-21,97.1,84.1,73.7,51.4,39.0,28.0,45,22,11,27.76,27.65,7,1,15,0.00
2013-8-22,102.7,84.2,73.2,50.3,39.6,30.8,40,23,9,27.78,27.58,15,1,21,0.12
2013-8-23,100.4,86.1,69.4,53.8,39.1,30.7,57,23,10,27.76,27.52,10,2,13,0.00
2013-8-24,92.8,80.8,70.7,67.3,43.5,30.2,88,31,12,27.80,27.66,10,2,15,0.43
2013-8-25,77.3,74.5,70.8,68.4,65.7,60.9,87,74,57,27.80,27.73,8,0,11,0.24
2013-8-26,82.2,74.3,71.7,69.9,61.5,51.0,88,66,34,27.77,27.67,7,1,10,0.24
2013-8-27,102.0,91.3,70.7,64.9,37.0,28.5,81,19,10,27.71,27.55,5,1,11,0.00
2013-8-28,98.4,85.8,75.7,52.2,39.9,31.1,41,22,11,27.79,27.61,8,1,12,0.00
2013-8-29,88.1,79.5,72.8,65.9,53.8,44.0,79,43,23,27.92,27.79,9,1,12,0.00
2013-8-30,89.7,80.7,72.8,67.7,53.8,40.4,84,44,18,27.89,27.75,6,0,8,0.00
2013-8-31,97.5,84.1,71.7,59.3,45.8,34.3,65,31,13,27.83,27.62,8,1,17,0.00
2013-9-1,99.6,86.7,71.7,52.5,40.5,28.8,49,23,10,27.77,27.58,10,1,13,0.00
2013-9-2,97.3,84.4,75.7,47.6,40.8,30.6,35,23,11,27.82,27.59,7,1,10,0.00
2013-9-3,103.4,83.8,73.2,47.8,39.3,30.6,39,22,9,27.76,27.66,11,1,17,0.00
2013-9-4,103.2,87.3,69.8,50.8,37.5,23.9,50,21,9,27.79,27.64,7,1,13,0.00
2013-9-5,103.8,90.3,73.2,36.8,30.5,21.5,23,12,9,27.77,27.64,14,1,18,0.00
2013-9-6,100.5,84.9,73.4,53.9,35.2,25.2,48,18,10,27.80,27.62,8,1,13,0.36
2013-9-7,89.2,79.0,72.1,56.7,46.8,37.4,57,34,18,27.80,27.66,6,0,8,0.00
2013-9-8,88.3,76.8,71.2,65.2,52.2,40.2,78,45,19,27.74,27.61,6,1,9,0.00
2013-9-9,87.6,75.1,68.3,68.7,57.1,44.0,90,57,23,27.68,27.54,11,1,16,0.67
2013-9-10,87.9,75.4,64.5,65.1,48.7,35.3,93,47,18,27.77,27.66,9,1,13,0.28
2013-9-11,70.7,70.3,69.8,54.8,53.2,52.0,59,55,52,27.77,27.77,0,0,0,0.00
2013-9-13,83.1,81.2,79.5,45.4,40.8,38.6,30,24,21,27.58,27.57,0,0,0,0.00
2013-9-14,100.9,85.4,71.4,51.4,38.5,27.1,48,22,10,27.62,27.49,6,1,11,0.00
2013-9-15,101.1,87.1,71.7,45.4,34.9,28.1,38,17,10,27.76,27.58,7,1,13,0.00
2013-9-16,100.7,90.0,80.9,37.1,32.9,29.2,19,14,10,28.01,27.75,7,2,14,0.00
2013-9-17,102.3,91.0,81.3,38.9,33.3,24.7,20,13,9,31.80,28.00,8,1,11,0.00
2013-9-18,99.8,87.1,72.8,41.0,29.4,22.1,28,13,9,31.74,28.42,8,1,11,0.00
2013-9-19,100.5,84.7,69.0,34.8,28.2,19.5,23,13,9,29.96,28.13,8,1,13,0.00
2013-9-20,100.0,83.3,68.5,34.8,27.5,18.4,22,13,10,28.41,28.15,9,1,11,0.00
2013-9-21,97.1,84.1,69.6,43.8,34.0,27.5,35,18,11,28.65,28.27,8,1,11,0.00
2013-9-22,92.1,82.1,71.0,44.4,33.8,19.4,32,19,11,28.40,27.44,15,4,22,0.00
2013-9-23,90.8,75.3,59.3,26.7,21.8,14.3,24,14,10,27.74,27.59,7,1,10,0.00
2013-9-24,99.6,79.7,60.2,34.6,23.9,14.4,19,13,9,27.79,27.59,8,1,11,0.00
2013-9-25,95.3,79.8,64.4,32.8,23.1,15.7,15,12,9,27.68,27.47,13,2,18,0.00
2013-9-26,92.3,79.5,65.3,34.0,23.5,16.4,23,13,9,27.60,27.44,13,3,17,0.00
2013-9-27,79.7,71.7,62.0,43.0,28.6,15.3,36,21,13,27.75,27.56,8,2,14,0.00
2013-9-28,88.1,72.1,54.5,26.6,19.5,11.3,18,14,10,27.85,27.72,8,1,10,0.00
2013-9-29,91.9,75.3,59.1,32.0,21.8,14.3,24,14,10,27.89,27.72,7,1,11,0.00
2013-9-30,91.9,74.8,58.1,27.0,21.0,14.1,22,14,9,27.82,27.63,8,1,12,0.00
2013-10-1,92.3,75.9,57.7,27.0,20.9,13.2,17,13,9,27.79,27.65,7,1,11,0.00
2013-10-2,90.5,76.4,61.7,31.9,22.5,15.7,24,14,10,27.78,27.61,7,1,11,0.00
2013-10-3,92.8,77.0,64.0,37.3,27.0,16.7,35,17,9,27.70,27.50,9,1,13,0.00
2013-10-4,86.0,73.1,59.3,29.7,21.8,15.3,26,15,11,27.78,27.62,9,1,13,0.00
2013-10-5,84.3,68.1,54.3,24.5,17.7,7.6,18,15,11,27.90,27.78,8,1,13,0.00
2013-10-6,90.5,73.4,52.7,26.6,19.0,7.0,17,13,10,27.92,27.75,6,1,11,0.00
2013-10-7,94.4,77.0,58.8,32.8,21.3,14.1,17,13,9,27.83,27.65,7,0,11,0.00
2013-10-8,89.9,74.8,60.2,26.6,20.6,14.3,17,13,10,27.74,27.57,9,1,13,0.00
2013-10-9,86.1,74.7,61.5,25.5,20.7,14.9,16,13,11,27.63,27.48,17,5,24,0.00
2013-10-10,71.7,64.0,53.9,36.9,27.8,17.6,39,26,14,27.76,27.56,10,3,18,0.00
2013-10-11,78.4,62.1,48.3,38.0,25.3,14.3,56,28,13,27.80,27.67,7,1,12,0.00
2013-10-12,87.0,68.2,50.3,26.7,21.4,15.3,34,18,11,27.77,27.63,8,0,13,0.00
2013-10-13,87.6,73.2,57.9,28.5,21.9,14.3,26,15,11,27.79,27.66,11,2,19,0.00
2013-10-14,83.1,68.9,55.4,33.3,22.5,14.3,36,19,11,27.85,27.69,8,0,11,0.00
2013-10-15,83.8,68.0,54.1,24.5,18.9,12.6,25,16,11,27.77,27.63,8,1,11,0.00
2013-10-16,79.1,63.8,49.4,23.6,15.9,8.6,19,16,12,27.86,27.76,7,1,11,0.00
2013-10-17,80.9,63.3,46.2,23.6,14.4,3.8,18,15,12,27.87,27.67,6,1,11,0.00
2013-10-18,81.3,64.3,46.7,23.8,15.0,4.2,18,15,12,27.83,27.70,8,1,12,0.00
2013-10-19,86.3,66.2,48.5,25.6,15.8,4.4,18,14,11,27.86,27.69,8,1,10,0.00
2013-10-20,83.4,65.8,48.7,24.5,15.5,4.5,17,14,11,27.80,27.63,9,1,13,0.00
2013-10-21,85.1,67.1,50.1,24.6,16.3,5.7,17,14,11,27.81,27.69,8,1,11,0.00
2013-10-22,91.2,71.7,50.7,27.0,18.1,6.1,17,13,10,27.86,27.68,8,1,11,0.00
2013-10-23,93.2,74.8,59.3,32.8,20.7,14.3,17,13,9,27.76,27.62,7,1,10,0.00
2013-10-24,92.1,73.1,57.2,27.0,19.9,12.7,17,14,9,27.78,27.62,8,1,13,0.00
2013-10-25,86.1,69.4,54.8,25.5,18.0,8.1,18,14,11,27.88,27.75,8,1,11,0.00
2013-10-26,87.8,68.7,51.0,26.6,17.6,6.4,18,14,10,27.92,27.75,6,0,8,0.00
2013-10-27,89.9,73.4,60.0,26.6,20.0,14.4,17,14,10,27.81,27.56,8,1,12,0.00
2013-10-28,81.6,69.1,57.7,24.1,18.6,13.2,17,15,12,27.72,27.61,11,2,16,0.00
2013-10-29,80.4,69.0,54.8,23.6,19.0,14.1,26,15,12,27.75,27.61,15,3,23,0.00
2013-10-30,69.4,58.0,48.3,26.1,19.4,8.0,37,23,15,27.83,27.71,8,1,12,0.00
2013-10-31,74.1,57.1,41.0,21.1,14.2,5.5,29,19,13,27.92,27.77,8,1,11,0.00
2013-11-1,82.5,60.1,42.2,24.2,13.9,4.5,22,17,11,27.96,27.77,6,0,9,0.00
2013-11-2,87.0,69.6,50.0,40.5,18.6,5.6,49,15,11,27.86,27.63,8,1,15,0.04
2013-11-3,80.9,67.7,56.6,49.5,31.6,16.6,70,31,12,27.76,27.52,7,1,13,0.04
2013-11-4,79.8,66.5,52.5,37.6,28.3,20.4,45,26,12,27.64,27.49,9,2,13,0.00
2013-11-5,71.0,61.7,53.0,34.8,27.2,18.6,46,29,14,27.92,27.63,7,1,12,0.00
2013-11-6,79.8,61.8,44.7,32.2,23.5,15.6,59,28,12,28.04,27.88,6,1,13,0.00
2013-11-7,82.7,70.1,60.4,24.5,18.9,14.3,17,14,11,27.97,27.79,7,2,13,0.00
2013-11-8,83.6,66.7,52.1,24.5,17.5,9.9,21,15,11,27.89,27.73,8,1,11,0.00
2013-11-9,84.5,66.0,50.1,24.5,18.8,11.4,27,17,11,27.91,27.76,5,0,9,0.00
2013-11-10,89.0,67.7,51.6,26.6,19.6,12.5,27,17,10,27.92,27.75,6,0,9,0.00
2013-11-11,90.6,69.4,52.3,26.6,19.8,11.6,26,16,10,27.89,27.75,8,0,11,0.00
2013-11-12,84.7,74.4,60.4,24.5,20.6,14.4,17,13,11,27.96,27.85,9,4,17,0.00
2013-11-13,80.9,70.2,59.0,24.3,20.3,15.7,25,15,12,27.96,27.76,10,2,15,0.00
2013-11-14,82.0,65.4,52.5,33.0,24.1,14.7,41,23,12,27.83,27.64,8,0,10,0.00
2013-11-15,74.4,66.5,56.4,37.1,26.2,12.6,35,22,16,27.67,27.46,12,2,15,0.00
2013-11-16,75.5,65.9,57.2,39.0,29.6,18.2,46,28,13,27.69,27.52,10,2,15,0.00
2013-11-17,75.3,64.6,53.7,39.0,29.9,20.6,56,29,15,27.85,27.69,6,0,9,0.00
2013-11-18,80.9,65.0,52.1,37.5,29.0,19.5,53,29,12,27.89,27.73,8,1,12,0.00
2013-11-19,79.1,63.1,49.4,31.9,26.2,17.0,49,28,12,27.82,27.64,6,0,10,0.00
2013-11-20,75.5,63.0,51.0,28.3,23.2,18.4,38,24,13,27.71,27.59,7,1,20,0.00
2013-11-21,74.1,64.2,54.6,46.7,26.5,19.5,61,26,13,27.75,27.65,6,0,10,0.00
2013-11-22,65.3,56.2,47.6,52.9,45.5,34.5,96,72,33,27.78,27.60,7,1,10,0.60
2013-11-23,56.1,49.6,46.7,49.9,42.1,31.2,98,79,40,27.87,27.74,5,0,8,0.64
2013-11-24,62.7,54.0,44.9,42.5,30.4,24.4,79,43,24,27.93,27.83,7,1,11,0.00
2013-11-25,62.9,48.2,37.9,42.6,31.9,24.1,88,58,25,27.99,27.90,6,1,9,0.00
2013-11-26,65.8,55.9,42.4,39.8,20.4,12.2,84,31,15,28.03,27.90,8,3,15,0.00
2013-11-27,65.8,57.5,47.4,17.0,12.9,7.3,19,17,15,27.94,27.78,8,3,15,0.00
2013-11-28,75.5,56.6,40.6,24.5,17.0,7.0,39,22,13,27.89,27.77,5,0,6,0.00
2013-11-29,77.3,59.2,45.8,33.0,25.9,17.9,50,31,13,27.97,27.82,5,0,6,0.00
2013-11-30,71.2,57.7,47.4,39.1,32.3,27.4,62,41,22,27.97,27.83,4,0,6,0.00
2013-12-1,72.8,58.3,49.6,40.7,34.6,23.0,68,45,16,28.00,27.86,6,1,8,0.00
2013-12-2,71.9,56.2,42.8,41.9,29.0,15.7,77,42,14,27.95,27.72,7,0,8,0.00
2013-12-3,75.3,59.6,45.3,31.2,22.8,15.7,50,27,13,27.75,27.52,5,0,8,0.00
2013-12-4,67.8,58.9,46.7,39.9,27.1,16.3,76,32,15,27.72,27.57,12,3,20,0.04
2013-12-5,50.5,45.0,34.8,42.1,28.8,14.6,88,58,28,27.89,27.69,7,1,10,0.20
2013-12-6,55.2,41.5,30.3,32.2,16.6,6.4,77,42,18,27.97,27.82,6,0,8,0.00
2013-12-7,60.9,44.9,31.6,23.3,16.4,9.3,70,36,16,27.89,27.73,6,0,9,0.00
2013-12-8,58.1,49.0,42.4,29.1,24.3,13.6,52,39,26,27.90,27.79,5,0,8,0.00
2013-12-9,53.4,42.4,32.7,21.4,12.3,3.7,47,30,18,28.07,27.87,6,1,11,0.00
2013-12-10,64.7,45.5,31.6,17.0,12.7,6.4,50,28,15,28.07,27.84,7,0,9,0.00
2013-12-11,75.7,55.1,38.1,21.7,16.3,10.7,36,23,13,27.97,27.86,5,0,8,0.00
2013-12-12,74.3,58.6,45.5,25.2,19.1,11.7,41,22,13,27.95,27.80,7,1,10,0.00
2013-12-13,64.0,49.6,38.4,27.6,19.9,13.0,54,34,16,27.97,27.84,6,1,9,0.00
2013-12-14,68.1,50.3,37.2,26.1,17.8,6.7,55,32,15,28.06,27.96,6,0,9,0.00
2013-12-15,70.1,53.3,38.6,19.7,13.5,6.0,36,21,14,28.06,27.90,7,1,10,0.00
2013-12-16,80.9,57.0,41.5,23.6,15.9,9.0,31,21,12,28.01,27.88,4,0,6,0.00
2013-12-17,85.8,60.9,44.0,25.2,15.5,8.2,25,18,11,28.02,27.82,5,0,8,0.00
2013-12-18,80.4,61.8,48.5,23.6,15.1,8.2,19,16,12,27.89,27.64,3,0,4,0.00
2013-12-19,69.8,59.4,49.4,19.9,14.0,8.9,19,17,14,27.68,27.50,10,2,15,0.00
2013-12-20,55.4,48.2,44.0,42.4,30.0,10.1,85,54,17,27.63,27.43,8,1,11,0.44
2013-12-21,53.9,47.4,42.0,42.3,31.7,21.5,88,58,29,27.84,27.63,8,1,13,0.04
2013-12-22,60.6,47.2,38.1,51.3,30.7,19.9,94,59,24,28.06,27.84,7,0,9,0.00
2013-12-23,69.9,50.2,35.6,44.2,24.8,11.7,86,46,14,28.13,27.99,6,1,11,0.00
2013-12-24,71.4,51.1,36.5,23.7,18.4,12.3,48,30,14,28.03,27.86,5,0,8,0.00
2013-12-25,71.4,53.5,37.7,26.6,19.9,13.0,60,31,14,28.03,27.89,8,2,15,0.00
2013-12-26,69.4,57.1,43.3,19.7,12.8,4.9,20,17,15,28.00,27.86,9,2,14,0.00
2013-12-27,68.3,56.3,40.2,18.9,13.3,4.6,30,18,15,27.97,27.87,9,2,13,0.00
2013-12-28,66.5,52.5,37.9,17.4,11.1,3.4,30,19,15,27.92,27.72,5,0,10,0.00
2013-12-29,64.5,54.0,39.2,21.9,15.2,7.4,42,23,15,27.83,27.74,6,1,10,0.00
2013-12-30,67.6,51.6,35.6,27.0,17.5,10.1,58,29,15,28.05,27.75,6,1,9,0.00
2013-12-31,74.6,53.3,37.5,21.1,16.1,8.3,40,25,13,28.03,27.83,4,0,6,0.00
2014-1-1,71.4,52.8,38.1,19.9,15.6,9.8,40,24,14,27.96,27.83,5,0,8,0.00
2014-1-2,77.1,57.6,40.6,22.5,17.7,8.9,40,23,13,27.97,27.80,4,0,12,0.00